Time;durP1;ratioP1;P1;durP2;ratioP2;P2;SDS_P1;SDS_P2;PMS_P1;PMS_P2;Temp;Humidity;BMP_temperature;BMP_pressure;BME280_temperature;BME280_humidity;BME280_pressure;Samples;Min_cycle;Max_cycle;Signal;HPM_P1;HPM_P2
2021/05/01 00:01:29;;;;;;;;;;;;;;;21.09;28.05;99632.72;4435849;32;19958;-58
2021/05/01 00:03:55;;;;;;;;;;;;;;;21.07;28.02;99634.50;4422306;32;20353;-57
2021/05/01 00:06:21;;;;;;;;;;;;;;;21.06;27.91;99628.34;4434743;32;19961;-57
2021/05/01 00:08:47;;;;;;;;;;;;;;;21.08;28.06;99625.66;4435338;32;20353;-57
2021/05/01 00:11:13;;;;;;;;;;;;;;;21.06;27.93;99628.34;4420412;32;19946;-56
2021/05/01 00:13:39;;;;;;;;;;;;;;;21.04;28.03;99624.78;4419832;32;20315;-58
2021/05/01 00:16:05;;;;;;;;;;;;;;;21.04;28.08;99627.44;4433938;32;19961;-56
2021/05/01 00:18:31;;;;;;;;;;;;;;;21.06;28.12;99617.75;4435139;32;20007;-58
2021/05/01 00:20:57;;;;;;;;;;;;;;;21.04;27.89;99624.78;4421500;32;20359;-57
2021/05/01 00:23:23;;;;;;;;;;;;;;;21.04;27.94;99623.91;4419617;32;20043;-56
2021/05/01 00:25:49;;;;;;;;;;;;;;;21.03;28.48;99628.31;4431459;32;19949;-54
2021/05/01 00:28:15;;;;;;;;;;;;;;;21.01;28.05;99622.16;4435266;32;20052;-55
2021/05/01 00:30:41;;;;;;;;;;;;;;;21.01;28.22;99614.22;4424210;32;19938;-56
2021/05/01 00:33:07;;;;;;;;;;;;;;;20.99;28.17;99621.28;4428400;32;19945;-54
2021/05/01 00:35:33;;;;;;;;;;;;;;;20.97;28.06;99617.75;4435091;32;19958;-54
2021/05/01 00:37:59;;;;;;;;;;;;;;;20.98;28.14;99614.22;4427753;32;19979;-55
2021/05/01 00:40:25;;;;;;;;;;;;;;;20.97;28.19;99611.56;4425567;32;19958;-55
2021/05/01 00:42:51;;;;;;;;;;;;;;;20.95;28.01;99610.69;4419779;32;20006;-56
2021/05/01 00:45:16;;;;;;;;;;;;;;;20.97;28.24;99611.56;4425504;32;20348;-55
2021/05/01 00:47:42;;;;;;;;;;;;;;;20.98;28.30;99602.75;4435563;32;19996;-57
2021/05/01 00:50:08;;;;;;;;;;;;;;;20.97;28.23;99599.22;4429740;32;19979;-55
2021/05/01 00:52:35;;;;;;;;;;;;;;;20.96;28.10;99600.13;4417927;32;20429;-56
2021/05/01 00:55:00;;;;;;;;;;;;;;;20.96;28.32;99599.22;4422790;32;20256;-55
2021/05/01 00:57:26;;;;;;;;;;;;;;;20.93;28.35;99594.84;4434823;32;20004;-55
2021/05/01 00:59:52;;;;;;;;;;;;;;;20.92;28.35;99590.41;4432081;32;20027;-57
2021/05/01 01:02:21;;;;;;;;;;;;;;;20.92;28.11;99587.75;4419578;32;19942;-57
2021/05/01 01:04:47;;;;;;;;;;;;;;;20.94;28.20;99586.00;4432835;32;19972;-55
2021/05/01 01:07:13;;;;;;;;;;;;;;;20.92;28.20;99588.66;4433289;32;20278;-55
2021/05/01 01:09:38;;;;;;;;;;;;;;;20.89;28.24;99601.00;4434653;32;20308;-56
2021/05/01 01:12:06;;;;;;;;;;;;;;;20.90;28.30;99600.13;4434148;32;19954;-56
2021/05/01 01:14:32;;;;;;;;;;;;;;;20.91;28.26;99591.28;4435286;32;19945;-56
2021/05/01 01:16:58;;;;;;;;;;;;;;;20.87;28.36;99589.53;4421104;32;19950;-54
2021/05/01 01:19:23;;;;;;;;;;;;;;;20.86;28.15;99593.09;4418931;32;19991;-54
2021/05/01 01:21:49;;;;;;;;;;;;;;;20.87;28.22;99589.53;4430572;32;19992;-55
2021/05/01 01:24:15;;;;;;;;;;;;;;;20.96;27.95;99586.88;4434526;32;19961;-56
2021/05/01 01:26:41;;;;;;;;;;;;;;;20.92;28.03;99582.47;4424029;32;19969;-56
2021/05/01 01:29:07;;;;;;;;;;;;;;;20.91;28.11;99583.34;4418784;32;19964;-56
2021/05/01 01:31:33;;;;;;;;;;;;;;;20.87;28.39;99579.84;4428270;32;19938;-55
2021/05/01 01:33:59;;;;;;;;;;;;;;;20.88;28.28;99576.31;4434648;32;19933;-54
2021/05/01 01:36:25;;;;;;;;;;;;;;;20.94;28.10;99570.12;4432833;32;19957;-55
2021/05/01 01:38:51;;;;;;;;;;;;;;;20.96;28.20;99567.47;4433709;32;20266;-54
2021/05/01 01:41:16;;;;;;;;;;;;;;;20.87;28.12;99563.09;4434270;32;19950;-54
2021/05/01 01:43:42;;;;;;;;;;;;;;;20.92;28.23;99566.59;4433855;32;19989;-56
2021/05/01 01:46:08;;;;;;;;;;;;;;;20.90;28.12;99571.00;4414715;32;19953;-56
2021/05/01 01:48:34;;;;;;;;;;;;;;;20.91;28.17;99559.53;4418865;32;19991;-55
2021/05/01 01:51:00;;;;;;;;;;;;;;;20.94;28.04;99554.25;4418088;32;19938;-54
2021/05/01 01:53:26;;;;;;;;;;;;;;;20.93;28.17;99563.09;4418730;32;20469;-55
2021/05/01 01:55:52;;;;;;;;;;;;;;;20.90;28.19;99568.34;4420902;32;19996;-56
2021/05/01 01:58:18;;;;;;;;;;;;;;;20.95;28.14;99566.59;4433740;32;20278;-54
2021/05/01 02:00:43;;;;;;;;;;;;;;;20.91;28.10;99563.06;4432316;32;19980;-56
2021/05/01 02:03:10;;;;;;;;;;;;;;;20.90;28.10;99563.97;4420206;32;20616;-56
2021/05/01 02:05:36;;;;;;;;;;;;;;;20.89;28.02;99566.59;4433721;32;19934;-53
2021/05/01 02:08:02;;;;;;;;;;;;;;;20.88;28.29;99562.19;4418913;32;20068;-55
2021/05/01 02:10:28;;;;;;;;;;;;;;;20.89;28.24;99553.38;4417868;32;19982;-56
2021/05/01 02:12:54;;;;;;;;;;;;;;;20.87;28.07;99557.78;4432329;32;19961;-55
2021/05/01 02:15:19;;;;;;;;;;;;;;;20.88;28.23;99556.91;4433436;32;19961;-55
2021/05/01 02:17:48;;;;;;;;;;;;;;;20.80;28.53;99548.97;4422033;32;20378;-57
2021/05/01 02:20:14;;;;;;;;;;;;;;;20.83;28.47;99558.69;4417734;32;19988;-56
2021/05/01 02:22:40;;;;;;;;;;;;;;;20.87;28.17;99557.78;4429330;32;19950;-56
2021/05/01 02:25:06;;;;;;;;;;;;;;;20.83;28.36;99554.25;4433478;32;19954;-56
2021/05/01 02:27:32;;;;;;;;;;;;;;;20.84;28.22;99553.38;4424079;32;19954;-57
2021/05/01 02:29:58;;;;;;;;;;;;;;;20.83;28.30;99556.03;4418158;32;19943;-56
2021/05/01 02:32:24;;;;;;;;;;;;;;;20.79;28.44;99561.28;4426440;32;20029;-56
2021/05/01 02:34:50;;;;;;;;;;;;;;;20.81;28.14;99558.69;4433684;32;19963;-56
2021/05/01 02:37:16;;;;;;;;;;;;;;;20.78;28.49;99563.97;4432424;32;20335;-56
2021/05/01 02:39:41;;;;;;;;;;;;;;;20.76;28.46;99573.69;4433326;32;19957;-56
2021/05/01 02:42:07;;;;;;;;;;;;;;;20.80;28.19;99567.47;4433237;32;19947;-56
2021/05/01 02:44:33;;;;;;;;;;;;;;;20.79;28.36;99571.00;4433680;32;20373;-55
2021/05/01 02:46:59;;;;;;;;;;;;;;;20.75;28.25;99575.41;4429535;32;20331;-55
2021/05/01 02:49:25;;;;;;;;;;;;;;;20.76;28.42;99579.81;4417212;32;19965;-56
2021/05/01 02:51:51;;;;;;;;;;;;;;;20.77;28.50;99571.00;4420104;32;20048;-54
2021/05/01 02:54:17;;;;;;;;;;;;;;;20.79;28.25;99574.53;4433344;32;20224;-55
2021/05/01 02:56:43;;;;;;;;;;;;;;;20.72;28.50;99574.53;4432185;32;19984;-57
2021/05/01 02:59:09;;;;;;;;;;;;;;;20.78;28.55;99575.41;4417805;32;20292;-54
2021/05/01 03:01:35;;;;;;;;;;;;;;;20.72;28.38;99570.16;4417746;32;19962;-55
2021/05/01 03:04:01;;;;;;;;;;;;;;;20.72;28.60;99570.16;4418432;32;19992;-55
2021/05/01 03:06:26;;;;;;;;;;;;;;;20.78;28.39;99563.97;4416960;32;19953;-56
2021/05/01 03:08:52;;;;;;;;;;;;;;;20.77;28.50;99562.19;4431562;32;19985;-56
2021/05/01 03:11:18;;;;;;;;;;;;;;;20.74;28.59;99565.72;4432715;32;19957;-56
2021/05/01 03:13:44;;;;;;;;;;;;;;;20.76;28.40;99555.16;4421345;32;20001;-56
2021/05/01 03:16:10;;;;;;;;;;;;;;;20.69;28.67;99556.94;4417173;32;19990;-56
2021/05/01 03:18:36;;;;;;;;;;;;;;;20.73;28.60;99558.69;4428457;32;19989;-56
2021/05/01 03:21:02;;;;;;;;;;;;;;;20.74;28.57;99557.78;4432528;32;20171;-56
2021/05/01 03:23:28;;;;;;;;;;;;;;;20.74;28.40;99557.78;4423526;32;20038;-55
2021/05/01 03:25:54;;;;;;;;;;;;;;;20.70;28.63;99565.72;4417717;32;19952;-56
2021/05/01 03:28:21;;;;;;;;;;;;;;;20.71;28.46;99571.03;4425921;32;19950;-55
2021/05/01 03:30:47;;;;;;;;;;;;;;;20.74;28.54;99557.78;4431863;32;19961;-52
2021/05/01 03:33:13;;;;;;;;;;;;;;;20.77;28.50;99563.06;4425384;32;20372;-56
2021/05/01 03:35:39;;;;;;;;;;;;;;;20.78;28.54;99564.81;4431635;32;19965;-56
2021/05/01 03:38:05;;;;;;;;;;;;;;;20.75;28.68;99570.12;4432827;32;19958;-55
2021/05/01 03:40:30;;;;;;;;;;;;;;;20.64;28.75;99566.63;4432655;32;19970;-55
2021/05/01 03:42:56;;;;;;;;;;;;;;;20.66;28.60;99567.50;4433216;32;19939;-56
2021/05/01 03:45:22;;;;;;;;;;;;;;;20.66;28.74;99572.78;4432152;32;20037;-56
2021/05/01 03:47:48;;;;;;;;;;;;;;;20.70;28.74;99571.03;4430158;32;20026;-55
2021/05/01 03:50:14;;;;;;;;;;;;;;;20.71;28.59;99572.78;4416863;32;20362;-55
2021/05/01 03:52:40;;;;;;;;;;;;;;;20.61;28.86;99556.91;4418821;32;19950;-54
2021/05/01 03:55:06;;;;;;;;;;;;;;;20.59;28.82;99563.97;4432378;32;19995;-56
2021/05/01 03:57:32;;;;;;;;;;;;;;;20.56;28.84;99564.00;4433365;32;19979;-54
2021/05/01 03:59:58;;;;;;;;;;;;;;;20.57;29.01;99559.59;4417148;32;19961;-55
2021/05/01 04:02:23;;;;;;;;;;;;;;;20.55;28.97;99554.28;4416802;32;20264;-56
2021/05/01 04:04:49;;;;;;;;;;;;;;;20.61;28.74;99561.34;4432053;32;19995;-56
2021/05/01 04:07:15;;;;;;;;;;;;;;;20.66;28.76;99564.84;4432030;32;20301;-56
2021/05/01 04:09:41;;;;;;;;;;;;;;;20.63;28.71;99564.84;4419537;32;19934;-56
2021/05/01 04:12:07;;;;;;;;;;;;;;;20.54;28.83;99555.19;4417265;32;19973;-56
2021/05/01 04:14:33;;;;;;;;;;;;;;;20.53;28.99;99555.16;4429335;32;20278;-56
2021/05/01 04:16:59;;;;;;;;;;;;;;;20.59;28.81;99558.69;4432982;32;19976;-56
2021/05/01 04:19:25;;;;;;;;;;;;;;;20.60;28.71;99559.59;4422134;32;19961;-55
2021/05/01 04:21:50;;;;;;;;;;;;;;;20.54;28.98;99564.88;4416544;32;19950;-56
2021/05/01 04:24:16;;;;;;;;;;;;;;;20.59;28.76;99560.47;4426089;32;19933;-55
2021/05/01 04:26:42;;;;;;;;;;;;;;;20.54;28.89;99557.81;4432087;32;20129;-56
2021/05/01 04:29:08;;;;;;;;;;;;;;;20.46;28.85;99552.56;4425855;32;20569;-57
2021/05/01 04:31:34;;;;;;;;;;;;;;;20.53;28.84;99557.81;4419780;32;19959;-56
2021/05/01 04:34:00;;;;;;;;;;;;;;;20.52;28.82;99550.78;4426248;32;19973;-54
2021/05/01 04:36:26;;;;;;;;;;;;;;;20.44;28.96;99559.63;4433681;32;19942;-56
2021/05/01 04:38:52;;;;;;;;;;;;;;;20.49;29.08;99551.66;4434988;32;20012;-56
2021/05/01 04:41:18;;;;;;;;;;;;;;;20.43;29.12;99552.53;4435218;32;19993;-55
2021/05/01 04:43:46;;;;;;;;;;;;;;;20.54;28.72;99549.00;4435326;32;19960;-54
2021/05/01 04:46:12;;;;;;;;;;;;;;;20.45;28.89;99550.78;4434325;32;20591;-55
2021/05/01 04:48:38;;;;;;;;;;;;;;;20.43;28.89;99549.88;4433203;32;19961;-56
2021/05/01 04:51:03;;;;;;;;;;;;;;;20.48;29.04;99553.44;4418922;32;20356;-54
2021/05/01 04:53:29;;;;;;;;;;;;;;;20.50;28.76;99553.44;4420627;32;19966;-55
2021/05/01 04:55:56;;;;;;;;;;;;;;;20.50;28.91;99551.66;4435026;32;19958;-56
2021/05/01 04:58:21;;;;;;;;;;;;;;;20.49;29.01;99560.47;4435569;32;19937;-55
2021/05/01 05:00:47;;;;;;;;;;;;;;;20.50;28.92;99554.28;4419792;32;19987;-53
2021/05/01 05:03:13;;;;;;;;;;;;;;;20.50;28.97;99546.38;4419780;32;19965;-57
2021/05/01 05:05:39;;;;;;;;;;;;;;;20.46;28.96;99535.78;4431775;32;19957;-55
2021/05/01 05:08:05;;;;;;;;;;;;;;;20.44;29.00;99538.44;4421007;32;20371;-54
2021/05/01 05:10:31;;;;;;;;;;;;;;;20.49;29.13;99536.66;4433867;32;19950;-54
2021/05/01 05:12:57;;;;;;;;;;;;;;;20.42;28.98;99539.31;4426316;32;19968;-55
2021/05/01 05:15:23;;;;;;;;;;;;;;;20.43;29.04;99547.25;4424645;32;20074;-56
2021/05/01 05:17:48;;;;;;;;;;;;;;;20.42;29.04;99542.84;4427265;32;19960;-53
2021/05/01 05:20:14;;;;;;;;;;;;;;;20.43;29.16;99552.53;4425257;32;20356;-55
2021/05/01 05:22:41;;;;;;;;;;;;;;;20.30;29.32;99546.38;4430673;32;19983;-56
2021/05/01 05:25:06;;;;;;;;;;;;;;;20.35;29.13;99543.75;4427063;32;19979;-56
2021/05/01 05:27:32;;;;;;;;;;;;;;;20.39;29.01;99534.91;4418831;32;20327;-53
2021/05/01 05:29:58;;;;;;;;;;;;;;;20.42;29.06;99528.75;4422233;32;20005;-56
2021/05/01 05:32:24;;;;;;;;;;;;;;;20.45;28.96;99540.22;4434253;32;19972;-56
2021/05/01 05:34:50;;;;;;;;;;;;;;;20.48;29.04;99547.25;4432283;32;19950;-54
2021/05/01 05:37:16;;;;;;;;;;;;;;;20.38;29.08;99554.31;4433424;32;20425;-55
2021/05/01 05:39:42;;;;;;;;;;;;;;;20.40;29.02;99551.69;4430138;32;20000;-54
2021/05/01 05:42:10;;;;;;;;;;;;;;;20.43;29.09;99560.47;4419372;32;19957;-54
2021/05/01 05:44:36;;;;;;;;;;;;;;;20.40;28.97;99555.19;4421082;32;19946;-55
2021/05/01 05:47:02;;;;;;;;;;;;;;;20.43;29.06;99549.88;4426556;32;20302;-53
2021/05/01 05:49:28;;;;;;;;;;;;;;;20.44;29.05;99558.72;4424118;32;19968;-52
2021/05/01 05:51:54;;;;;;;;;;;;;;;20.35;29.23;99555.19;4426213;32;19946;-54
2021/05/01 05:54:20;;;;;;;;;;;;;;;20.38;29.21;99551.66;4425040;32;19942;-54
2021/05/01 05:56:46;;;;;;;;;;;;;;;20.40;29.05;99556.97;4425767;32;20572;-55
2021/05/01 05:59:12;;;;;;;;;;;;;;;20.34;29.04;99566.66;4425301;32;20419;-55
2021/05/01 06:01:39;;;;;;;;;;;;;;;20.43;29.04;99563.09;4425291;32;19945;-54
2021/05/01 06:04:05;;;;;;;;;;;;;;;20.47;29.07;99564.00;4426844;32;19974;-54
2021/05/01 06:06:31;;;;;;;;;;;;;;;20.45;28.98;99577.25;4423303;32;19969;-55
2021/05/01 06:08:56;;;;;;;;;;;;;;;20.41;29.25;99564.00;4428991;32;19961;-56
2021/05/01 06:11:22;;;;;;;;;;;;;;;20.40;29.20;99572.84;4424965;32;20045;-55
2021/05/01 06:13:48;;;;;;;;;;;;;;;20.47;29.00;99566.63;4425306;32;19958;-55
2021/05/01 06:16:14;;;;;;;;;;;;;;;20.53;29.12;99568.41;4427930;32;19949;-54
2021/05/01 06:18:40;;;;;;;;;;;;;;;20.53;28.86;99557.81;4424775;32;19981;-53
2021/05/01 06:21:06;;;;;;;;;;;;;;;20.52;29.15;99564.00;4423842;32;20357;-54
2021/05/01 06:23:32;;;;;;;;;;;;;;;20.49;29.05;99557.81;4424728;32;19950;-54
2021/05/01 06:25:58;;;;;;;;;;;;;;;20.57;28.79;99559.59;4425554;32;20327;-54
2021/05/01 06:28:24;;;;;;;;;;;;;;;20.50;29.16;99570.16;4425100;32;19954;-56
2021/05/01 06:30:50;;;;;;;;;;;;;;;20.55;29.07;99561.34;4424226;32;20000;-54
2021/05/01 06:33:16;;;;;;;;;;;;;;;20.55;28.98;99564.88;4424315;32;20001;-56
2021/05/01 06:35:42;;;;;;;;;;;;;;;20.56;29.06;99573.69;4425444;32;20093;-56
2021/05/01 06:38:08;;;;;;;;;;;;;;;20.53;29.26;99573.69;4425661;32;19958;-52
2021/05/01 06:40:36;;;;;;;;;;;;;;;20.54;29.15;99579.00;4425262;32;20334;-54
2021/05/01 06:43:04;;;;;;;;;;;;;;;20.54;29.26;99575.44;4425859;32;19985;-55
2021/05/01 06:45:30;;;;;;;;;;;;;;;20.52;29.17;99582.50;4425771;32;19964;-54
2021/05/01 06:47:56;;;;;;;;;;;;;;;20.61;29.03;99582.50;4424876;32;19950;-54
2021/05/01 06:50:22;;;;;;;;;;;;;;;20.57;29.08;99580.75;4424882;32;19949;-53
2021/05/01 06:52:48;;;;;;;;;;;;;;;20.53;29.25;99587.81;4425324;32;19966;-53
2021/05/01 06:55:14;;;;;;;;;;;;;;;20.59;28.93;99584.28;4425691;32;19958;-51
2021/05/01 06:57:40;;;;;;;;;;;;;;;20.60;28.96;99570.16;4424611;32;19964;-51
2021/05/01 07:00:06;;;;;;;;;;;;;;;20.57;28.98;99572.81;4424733;32;20384;-54
2021/05/01 07:02:37;;;;;;;;;;;;;;;20.55;29.07;99571.91;4424445;32;20045;-51
2021/05/01 07:05:03;;;;;;;;;;;;;;;20.59;29.00;99571.06;4425213;32;19978;-56
2021/05/01 07:07:29;;;;;;;;;;;;;;;20.59;29.06;99579.00;4424107;32;19950;-55
2021/05/01 07:09:55;;;;;;;;;;;;;;;20.57;29.07;99581.63;4423314;32;20781;-55
2021/05/01 07:12:21;;;;;;;;;;;;;;;20.57;29.22;99583.41;4425410;32;19950;-54
2021/05/01 07:14:47;;;;;;;;;;;;;;;20.61;29.08;99587.78;4416537;32;20378;-51
2021/05/01 07:17:13;;;;;;;;;;;;;;;20.63;29.06;99601.91;4417522;32;19989;-55
2021/05/01 07:19:39;;;;;;;;;;;;;;;20.61;29.15;99601.03;4413860;32;19972;-55
2021/05/01 07:22:05;;;;;;;;;;;;;;;20.62;29.16;99589.56;4421765;32;19950;-55
2021/05/01 07:24:31;;;;;;;;;;;;;;;20.62;29.19;99590.44;4430939;32;19960;-52
2021/05/01 07:26:57;;;;;;;;;;;;;;;20.61;29.27;99599.25;4424722;32;19950;-54
2021/05/01 07:29:23;;;;;;;;;;;;;;;20.60;29.35;99591.31;4414719;32;20029;-55
2021/05/01 07:31:50;;;;;;;;;;;;;;;20.59;29.30;99590.44;4419783;32;19957;-54
2021/05/01 07:34:16;;;;;;;;;;;;;;;20.60;29.34;99593.97;4430828;32;19950;-55
2021/05/01 07:36:44;;;;;;;;;;;;;;;20.60;29.42;99586.03;4426469;32;19974;-53
2021/05/01 07:39:10;;;;;;;;;;;;;;;20.63;29.40;99586.03;4412525;32;19954;-55
2021/05/01 07:41:36;;;;;;;;;;;;;;;20.64;29.42;99588.69;4421870;32;19977;-54
2021/05/01 07:44:02;;;;;;;;;;;;;;;20.60;29.51;99580.75;4418002;32;20306;-55
2021/05/01 07:46:28;;;;;;;;;;;;;;;20.63;29.51;99580.72;4412627;32;20015;-57
2021/05/01 07:48:54;;;;;;;;;;;;;;;20.65;29.43;99578.97;4421909;32;19950;-57
2021/05/01 07:51:20;;;;;;;;;;;;;;;20.71;29.48;99578.06;4418886;32;19964;-52
2021/05/01 07:53:46;;;;;;;;;;;;;;;20.52;29.88;99582.50;4420388;32;19957;-57
2021/05/01 07:56:12;;;;;;;;;;;;;;;20.41;30.24;99570.16;4412841;32;20597;-57
2021/05/01 07:58:38;;;;;;;;;;;;;;;20.36;30.14;99574.59;4426613;32;19960;-57
2021/05/01 08:01:04;;;;;;;;;;;;;;;20.40;30.46;99573.69;4421231;32;20329;-56
2021/05/01 08:03:31;;;;;;;;;;;;;;;20.56;29.88;99568.38;4419052;32;19977;-57
2021/05/01 08:05:57;;;;;;;;;;;;;;;20.63;30.17;99564.84;4423676;32;19958;-57
2021/05/01 08:08:23;;;;;;;;;;;;;;;20.59;30.15;99565.75;4421908;32;20155;-58
2021/05/01 08:10:49;;;;;;;;;;;;;;;20.67;30.13;99569.25;4427354;32;19972;-57
2021/05/01 08:13:14;;;;;;;;;;;;;;;20.73;29.92;99571.91;4425964;32;20359;-54
2021/05/01 08:15:40;;;;;;;;;;;;;;;20.77;29.94;99564.84;4426386;32;19964;-56
2021/05/01 08:18:06;;;;;;;;;;;;;;;20.80;29.83;99570.12;4421466;32;20307;-57
2021/05/01 08:20:33;;;;;;;;;;;;;;;20.82;29.92;99570.16;4423752;32;21268;-57
2021/05/01 08:22:58;;;;;;;;;;;;;;;20.94;29.62;99570.12;4427051;32;19972;-57
2021/05/01 08:25:25;;;;;;;;;;;;;;;21.02;29.59;99573.63;4418053;32;19958;-57
2021/05/01 08:27:51;;;;;;;;;;;;;;;21.02;29.53;99568.31;4419533;32;20053;-57
2021/05/01 08:30:17;;;;;;;;;;;;;;;21.00;29.60;99559.50;4425326;32;20588;-57
2021/05/01 08:32:43;;;;;;;;;;;;;;;21.13;29.43;99559.47;4416858;32;19958;-56
2021/05/01 08:35:09;;;;;;;;;;;;;;;21.13;29.57;99559.47;4416296;32;19950;-57
2021/05/01 08:37:35;;;;;;;;;;;;;;;21.09;29.78;99557.72;4416651;32;19965;-57
2021/05/01 08:40:02;;;;;;;;;;;;;;;21.16;29.72;99562.09;4422121;32;19997;-56
2021/05/01 08:42:27;;;;;;;;;;;;;;;21.15;29.85;99555.03;4409865;32;19953;-55
2021/05/01 08:44:53;;;;;;;;;;;;;;;21.11;30.02;99556.81;4416370;32;20380;-55
2021/05/01 08:47:20;;;;;;;;;;;;;;;21.17;30.06;99562.09;4408053;32;19965;-57
2021/05/01 08:49:45;;;;;;;;;;;;;;;21.19;30.16;99570.06;4401326;32;20349;-57
2021/05/01 08:52:11;;;;;;;;;;;;;;;21.11;30.45;99574.47;4413446;32;19949;-57
2021/05/01 08:54:37;;;;;;;;;;;;;;;21.21;30.54;99578.88;4412666;32;20285;-57
2021/05/01 08:57:03;;;;;;;;;;;;;;;21.20;30.63;99577.09;4411685;32;19954;-54
2021/05/01 08:59:30;;;;;;;;;;;;;;;21.38;30.09;99580.56;4414555;32;19958;-56
2021/05/01 09:01:56;;;;;;;;;;;;;;;21.33;30.16;99584.13;4413067;32;19989;-58
2021/05/01 09:04:23;;;;;;;;;;;;;;;21.40;30.07;99589.37;4403944;32;19981;-55
2021/05/01 09:06:49;;;;;;;;;;;;;;;21.54;29.90;99590.19;4414297;32;19964;-57
2021/05/01 09:09:15;;;;;;;;;;;;;;;21.46;30.04;99590.22;4414593;32;20294;-56
2021/05/01 09:11:41;;;;;;;;;;;;;;;21.50;30.04;99579.63;4412444;32;19989;-57
2021/05/01 09:14:07;;;;;;;;;;;;;;;21.53;29.99;99579.59;4412909;32;20674;-58
2021/05/01 09:16:33;;;;;;;;;;;;;;;21.59;30.03;99585.75;4405681;32;20030;-58
2021/05/01 09:18:59;;;;;;;;;;;;;;;21.61;29.97;99572.50;4410055;32;19954;-58
2021/05/01 09:21:25;;;;;;;;;;;;;;;21.70;29.79;99582.19;4409672;32;20003;-58
2021/05/01 09:23:51;;;;;;;;;;;;;;;21.80;29.70;99585.66;4413174;32;20016;-58
2021/05/01 09:26:21;;;;;;;;;;;;;;;21.82;29.66;99598.03;4415412;32;19985;-59
2021/05/01 09:28:49;;;;;;;;;;;;;;;21.83;29.72;99589.19;4414115;32;20002;-58
2021/05/01 09:31:15;;;;;;;;;;;;;;;21.84;29.74;99580.34;4413837;32;19964;-59
2021/05/01 09:33:41;;;;;;;;;;;;;;;21.88;29.65;99583.84;4409583;32;19993;-59
2021/05/01 09:36:07;;;;;;;;;;;;;;;21.81;29.74;99585.66;4403136;32;19951;-57
2021/05/01 09:38:33;;;;;;;;;;;;;;;21.85;29.70;99587.41;4409650;32;19974;-56
2021/05/01 09:40:59;;;;;;;;;;;;;;;21.94;29.58;99570.56;4405676;32;19954;-59
2021/05/01 09:43:25;;;;;;;;;;;;;;;21.99;29.53;99583.78;4414962;32;20042;-58
2021/05/01 09:45:51;;;;;;;;;;;;;;;22.03;29.52;99566.94;4413530;32;19966;-59
2021/05/01 09:48:17;;;;;;;;;;;;;;;22.06;29.53;99579.31;4404810;32;19958;-58
2021/05/01 09:50:43;;;;;;;;;;;;;;;22.11;29.51;99573.09;4408721;32;19968;-59
2021/05/01 09:53:11;;;;;;;;;;;;;;;22.10;29.57;99566.03;4400708;32;19997;-59
2021/05/01 09:55:37;;;;;;;;;;;;;;;22.10;29.62;99566.03;4412294;32;19977;-59
2021/05/01 09:58:04;;;;;;;;;;;;;;;22.10;29.68;99565.13;4408783;32;19974;-59
2021/05/01 10:00:30;;;;;;;;;;;;;;;22.08;29.81;99565.16;4413795;32;19955;-59
2021/05/01 10:02:56;;;;;;;;;;;;;;;22.17;29.68;99562.44;4413790;32;19968;-56
2021/05/01 10:05:22;;;;;;;;;;;;;;;22.17;29.81;99554.50;4409800;32;19965;-59
2021/05/01 10:07:50;;;;;;;;;;;;;;;22.22;29.77;99558.87;4412537;32;19987;-58
2021/05/01 10:10:16;;;;;;;;;;;;;;;22.19;29.90;99554.44;4407282;32;19961;-56
2021/05/01 10:12:42;;;;;;;;;;;;;;;22.07;30.27;99560.75;4410256;32;19958;-58
2021/05/01 10:15:08;;;;;;;;;;;;;;;22.20;30.08;99552.69;4411000;32;20290;-58
2021/05/01 10:17:34;;;;;;;;;;;;;;;22.25;30.11;99553.53;4414660;32;20103;-58
2021/05/01 10:20:00;;;;;;;;;;;;;;;22.26;30.13;99555.28;4411130;32;19965;-59
2021/05/01 10:22:27;;;;;;;;;;;;;;;22.27;30.33;99557.03;4405664;32;20058;-57
2021/05/01 10:24:53;;;;;;;;;;;;;;;22.25;30.46;99550.87;4408432;32;20043;-58
2021/05/01 10:27:19;;;;;;;;;;;;;;;22.24;30.49;99550.00;4422805;32;19972;-58
2021/05/01 10:29:46;;;;;;;;;;;;;;;22.27;30.67;99542.03;4418729;32;19962;-57
2021/05/01 10:32:12;;;;;;;;;;;;;;;22.32;31.02;99548.16;4420920;32;20607;-58
2021/05/01 10:34:37;;;;;;;;;;;;;;;22.40;31.14;99550.72;4421876;32;19993;-58
2021/05/01 10:37:03;;;;;;;;;;;;;;;22.43;31.25;99547.19;4418310;32;20371;-58
2021/05/01 10:39:29;;;;;;;;;;;;;;;22.58;31.16;99551.50;4422444;32;19946;-58
2021/05/01 10:41:56;;;;;;;;;;;;;;;22.67;31.16;99545.22;4419526;32;19942;-58
2021/05/01 10:44:22;;;;;;;;;;;;;;;22.73;31.18;99542.50;4408697;32;20027;-57
2021/05/01 10:46:48;;;;;;;;;;;;;;;22.80;31.13;99540.66;4413596;32;19974;-59
2021/05/01 10:49:14;;;;;;;;;;;;;;;22.83;31.01;99533.53;4418548;32;19969;-57
2021/05/01 10:51:40;;;;;;;;;;;;;;;22.88;30.93;99538.78;4417534;32;19938;-54
2021/05/01 10:54:05;;;;;;;;;;;;;;;22.95;30.88;99540.47;4407984;32;20036;-56
2021/05/01 10:56:31;;;;;;;;;;;;;;;22.98;30.83;99540.44;4412012;32;20004;-56
2021/05/01 10:58:57;;;;;;;;;;;;;;;23.04;30.63;99538.63;4407190;32;19942;-56
2021/05/01 11:01:23;;;;;;;;;;;;;;;23.06;30.57;99534.16;4402054;32;19972;-58
2021/05/01 11:03:49;;;;;;;;;;;;;;;23.12;30.49;99534.97;4412564;32;19950;-58
2021/05/01 11:06:15;;;;;;;;;;;;;;;23.15;30.40;99537.56;4411640;32;19966;-58
2021/05/01 11:08:41;;;;;;;;;;;;;;;23.20;30.29;99533.97;4414197;32;19967;-58
2021/05/01 11:11:07;;;;;;;;;;;;;;;23.25;30.29;99534.81;4412337;32;19950;-57
2021/05/01 11:13:33;;;;;;;;;;;;;;;23.29;30.30;99547.19;4413308;32;19962;-57
2021/05/01 11:15:59;;;;;;;;;;;;;;;23.33;30.30;99548.03;4405289;32;19972;-57
2021/05/01 11:18:25;;;;;;;;;;;;;;;23.35;30.35;99543.56;4403653;32;20049;-57
2021/05/01 11:20:52;;;;;;;;;;;;;;;23.37;30.33;99541.75;4408131;32;19997;-57
2021/05/01 11:23:18;;;;;;;;;;;;;;;23.40;30.33;99542.59;4411766;32;20346;-58
2021/05/01 11:25:44;;;;;;;;;;;;;;;23.45;30.34;99539.88;4412729;32;19950;-57
2021/05/01 11:28:10;;;;;;;;;;;;;;;23.48;30.40;99537.19;4404442;32;20001;-58
2021/05/01 11:30:36;;;;;;;;;;;;;;;23.53;30.36;99542.44;4401331;32;19946;-56
2021/05/01 11:33:02;;;;;;;;;;;;;;;23.55;30.34;99538.88;4404098;32;20339;-55
2021/05/01 11:35:28;;;;;;;;;;;;;;;23.58;30.32;99535.25;4418601;32;19977;-58
2021/05/01 11:37:54;;;;;;;;;;;;;;;23.62;30.32;99533.44;4430208;32;19986;-58
2021/05/01 11:40:20;;;;;;;;;;;;;;;23.64;30.27;99536.94;4431829;32;19973;-58
2021/05/01 11:42:46;;;;;;;;;;;;;;;23.67;30.19;99529.81;4432762;32;19964;-58
2021/05/01 11:45:12;;;;;;;;;;;;;;;23.70;30.05;99519.13;4433063;32;19946;-58
2021/05/01 11:47:38;;;;;;;;;;;;;;;23.74;30.04;99522.63;4421241;32;19958;-58
2021/05/01 11:50:04;;;;;;;;;;;;;;;23.76;29.99;99518.16;4427935;32;20016;-58
2021/05/01 11:52:30;;;;;;;;;;;;;;;23.79;29.61;99511.94;4426620;32;19942;-58
2021/05/01 11:54:55;;;;;;;;;;;;;;;23.71;29.90;99509.41;4430111;32;20325;-59
2021/05/01 11:57:22;;;;;;;;;;;;;;;23.84;29.66;99505.63;4421968;32;19954;-58
2021/05/01 11:59:48;;;;;;;;;;;;;;;23.77;29.82;99504.00;4419563;32;20593;-57
2021/05/01 12:02:13;;;;;;;;;;;;;;;23.78;29.97;99500.44;4426135;32;19992;-57
2021/05/01 12:04:39;;;;;;;;;;;;;;;23.84;29.75;99492.34;4418906;32;19972;-57
2021/05/01 12:07:05;;;;;;;;;;;;;;;23.72;30.02;99489.87;4419497;32;20871;-56
2021/05/01 12:09:31;;;;;;;;;;;;;;;23.73;29.94;99491.63;4423811;32;19970;-56
2021/05/01 12:11:57;;;;;;;;;;;;;;;23.82;29.81;99480.88;4419291;32;19962;-57
2021/05/01 12:14:23;;;;;;;;;;;;;;;23.88;29.83;99479.88;4425815;32;20044;-58
2021/05/01 12:16:49;;;;;;;;;;;;;;;23.96;29.91;99477.09;4425249;32;20003;-58
2021/05/01 12:19:15;;;;;;;;;;;;;;;23.95;29.81;99480.66;4427698;32;19954;-58
2021/05/01 12:21:41;;;;;;;;;;;;;;;24.05;29.65;99481.41;4425533;32;20267;-54
2021/05/01 12:24:07;;;;;;;;;;;;;;;24.08;29.66;99476.06;4423593;32;19958;-53
2021/05/01 12:26:35;;;;;;;;;;;;;;;24.12;29.43;99467.97;4427472;32;19964;-57
2021/05/01 12:29:01;;;;;;;;;;;;;;;24.21;29.45;99466.94;4428292;32;19992;-57
2021/05/01 12:31:27;;;;;;;;;;;;;;;24.20;29.56;99459.00;4411716;32;20315;-57
2021/05/01 12:33:53;;;;;;;;;;;;;;;24.21;29.72;99461.63;4416382;32;19946;-58
2021/05/01 12:36:19;;;;;;;;;;;;;;;24.26;29.44;99466.84;4413827;32;19997;-58
2021/05/01 12:38:45;;;;;;;;;;;;;;;24.30;29.43;99455.25;4416153;32;20585;-58
2021/05/01 12:41:14;;;;;;;;;;;;;;;24.33;29.51;99443.69;4416168;32;19962;-59